ENVA

Trondheim , Værnes Airport

Trondheim, Norway
METAR ENVA 172250Z 09006KT 040V110 CAVOK 18/16 Q1014 RMK WIND 670FT 10006KT
Observed Flight Rules
Jul-17 @ 22:50 UTC (31 minutes ago) Visual Flight Rules
Wind Visibility Clouds
90° at 6 knots 10,000+ meters
  • Clear skies
Temperatures Readings
Current 18°C / 64°F
Dewpoint 16°C / 61°F
Humidity 88%
Altimeter 29.94" Hg
Pressure 1014 hPa
Elevation 17
METAR ENVA 172250Z 09006KT 040V110 CAVOK 18/16 Q1014 RMK WIND 670FT 10006KT
Observed Flight Rules
Jul-17 @ 22:50 UTC
(31 minutes ago)
VFR
Wind Visibility
90° at 6 knots 10,000+ meters
Clouds
  • Clear skies
Temperature Dewpoint
18°C / 64°F 16°C / 61°F
Humidity Altimeter Pressure
88% 29.94" Hg 1014 hPa